createdAt,value
2022-09-14T00:00:45.441Z,8.69
2022-09-14T00:05:47.823Z,9.19
2022-09-14T00:10:50.087Z,9.03
2022-09-14T00:15:52.327Z,8.74
2022-09-14T00:21:08.768Z,8.63
2022-09-14T00:26:16.834Z,8.76
2022-09-14T00:31:20.344Z,8.84
2022-09-14T00:36:26.016Z,8.92
2022-09-14T00:41:34.952Z,8.86
2022-09-14T00:46:45.511Z,8.64
2022-09-14T00:51:57.107Z,8.51
2022-09-14T00:57:03.978Z,8.20
2022-09-14T01:02:09.540Z,8.42
2022-09-14T01:07:21.065Z,8.59
2022-09-14T01:12:23.322Z,8.71
2022-09-14T01:17:33.840Z,8.32
2022-09-14T01:22:44.804Z,8.34
2022-09-14T01:27:48.470Z,8.16
2022-09-14T01:33:07.910Z,8.08
2022-09-14T01:38:20.941Z,8.00
2022-09-14T01:43:37.960Z,7.82
2022-09-14T01:49:02.693Z,8.13
2022-09-14T01:54:25.567Z,8.28
2022-09-14T01:59:32.368Z,8.47
2022-09-14T02:04:51.463Z,8.47
2022-09-14T02:09:55.433Z,8.84
2022-09-14T02:14:57.869Z,8.67
2022-09-14T02:20:02.303Z,8.48
2022-09-14T02:25:05.086Z,7.95
2022-09-14T02:30:08.355Z,7.82
2022-09-14T02:35:19.538Z,7.84
2022-09-14T02:40:29.099Z,8.06
2022-09-14T02:45:37.427Z,7.80
2022-09-14T02:50:51.801Z,8.06
2022-09-14T02:56:01.154Z,8.28
2022-09-14T03:01:04.715Z,8.21
2022-09-14T03:06:07.182Z,8.42
2022-09-14T03:11:09.379Z,7.96
2022-09-14T03:16:16.038Z,7.55
2022-09-14T03:21:18.463Z,7.71
2022-09-14T03:26:23.607Z,8.08
2022-09-14T03:31:26.809Z,8.36
2022-09-14T03:36:30.843Z,8.01
2022-09-14T03:41:32.975Z,7.56
2022-09-14T03:46:35.253Z,7.84
2022-09-14T03:51:37.481Z,7.85
2022-09-14T03:56:39.838Z,7.87
2022-09-14T04:01:41.972Z,7.86
2022-09-14T04:06:44.211Z,8.27
2022-09-14T04:11:47.279Z,7.76
2022-09-14T04:16:49.367Z,7.62
2022-09-14T04:21:51.538Z,7.31
2022-09-14T04:26:53.861Z,7.79
2022-09-14T04:31:55.961Z,8.24
2022-09-14T04:36:58.062Z,8.31
2022-09-14T04:42:00.164Z,8.27
2022-09-14T04:47:02.435Z,8.21
2022-09-14T04:52:04.733Z,7.79
2022-09-14T04:57:06.887Z,7.80
2022-09-14T05:02:09.022Z,7.88
2022-09-14T05:07:11.817Z,7.97
2022-09-14T05:12:13.948Z,8.11
2022-09-14T05:17:16.031Z,8.24
2022-09-14T05:22:18.195Z,8.25
2022-09-14T05:27:20.379Z,8.65
2022-09-14T05:32:22.586Z,8.85
2022-09-14T05:37:24.639Z,9.15
2022-09-14T05:42:26.789Z,9.50
2022-09-14T05:47:34.854Z,12.53
2022-09-14T05:52:40.904Z,20.43
2022-09-14T05:57:43.165Z,24.29
2022-09-14T06:02:53.679Z,26.95
2022-09-14T06:07:56.021Z,28.87
2022-09-14T06:13:00.382Z,29.73
2022-09-14T06:18:02.570Z,29.03
2022-09-14T06:23:07.427Z,30.20
2022-09-14T06:28:09.632Z,31.14
2022-09-14T06:33:11.953Z,31.94
2022-09-14T06:38:15.218Z,32.01
2022-09-14T06:43:20.573Z,32.29
2022-09-14T06:48:22.823Z,31.60
2022-09-14T06:53:29.863Z,31.26
2022-09-14T06:58:34.172Z,31.50
2022-09-14T07:03:38.490Z,29.62
2022-09-14T07:08:40.926Z,30.71
2022-09-14T07:13:43.603Z,30.90
2022-09-14T07:18:45.719Z,30.00
2022-09-14T07:23:48.714Z,30.52
2022-09-14T07:28:56.926Z,30.50
2022-09-14T07:34:02.291Z,30.34
2022-09-14T07:39:06.261Z,30.28
2022-09-14T07:44:09.996Z,30.37
2022-09-14T07:49:12.839Z,29.42
2022-09-14T07:54:17.500Z,28.79
2022-09-14T07:59:37.195Z,26.30
2022-09-14T08:04:39.838Z,27.95
2022-09-14T08:09:42.102Z,29.33
2022-09-14T08:14:44.267Z,29.49
2022-09-14T08:19:46.434Z,29.90
2022-09-14T08:24:48.527Z,29.14
2022-09-14T08:29:50.550Z,29.73
2022-09-14T08:34:52.789Z,29.20
2022-09-14T08:39:54.981Z,29.51
2022-09-14T08:45:00.830Z,29.57
2022-09-14T08:50:19.285Z,29.18
2022-09-14T08:55:39.036Z,28.89
2022-09-14T09:00:53.530Z,29.52
2022-09-14T09:06:16.254Z,29.85
2022-09-14T09:11:22.961Z,30.07
2022-09-14T09:16:27.409Z,30.30
2022-09-14T09:21:35.881Z,29.47
2022-09-14T09:26:40.506Z,30.52
2022-09-14T09:31:53.508Z,30.62
2022-09-14T09:37:34.661Z,30.77
2022-09-14T09:42:36.996Z,30.03
2022-09-14T09:47:42.086Z,30.10
2022-09-14T09:52:55.991Z,30.66
2022-09-14T09:58:18.239Z,31.14
2022-09-14T10:03:37.778Z,31.34
2022-09-14T10:08:43.420Z,31.91
2022-09-14T10:13:47.501Z,31.61
2022-09-14T10:18:52.291Z,31.56
2022-09-14T10:24:18.241Z,30.71
2022-09-14T10:29:42.993Z,30.45
2022-09-14T10:34:45.969Z,30.45
2022-09-14T10:40:04.668Z,30.54
2022-09-14T10:45:26.588Z,29.93
2022-09-14T10:50:53.026Z,30.19
2022-09-14T10:56:02.037Z,29.88
2022-09-14T11:01:33.235Z,29.54
2022-09-14T11:06:46.514Z,29.12
2022-09-14T11:12:00.297Z,28.62
2022-09-14T11:17:37.973Z,28.54
2022-09-14T11:22:54.422Z,27.95
2022-09-14T11:28:21.576Z,28.33
2022-09-14T11:33:38.424Z,28.03
2022-09-14T11:38:49.064Z,27.62
2022-09-14T11:44:23.451Z,27.88
2022-09-14T11:49:40.230Z,27.41
2022-09-14T11:54:46.622Z,27.81
2022-09-14T11:59:55.076Z,28.09
2022-09-14T12:05:06.505Z,27.83
2022-09-14T12:10:17.778Z,27.13
2022-09-14T12:15:29.108Z,27.02
2022-09-14T12:20:37.829Z,27.41
2022-09-14T12:25:53.178Z,27.27
2022-09-14T12:30:55.485Z,27.55
2022-09-14T12:36:11.164Z,27.41
2022-09-14T12:41:33.534Z,27.94
2022-09-14T12:46:38.872Z,27.72
2022-09-14T12:51:48.045Z,27.59
2022-09-14T12:57:17.330Z,27.38
2022-09-14T13:02:41.505Z,27.38
2022-09-14T13:07:45.322Z,27.31
2022-09-14T13:12:48.925Z,27.10
2022-09-14T13:18:24.986Z,27.08
2022-09-14T13:23:41.172Z,27.42
2022-09-14T13:28:46.943Z,27.05
2022-09-14T13:33:54.540Z,26.94
2022-09-14T13:39:01.826Z,26.95
2022-09-14T13:44:06.000Z,26.79
2022-09-14T13:49:08.987Z,26.78
2022-09-14T13:54:29.899Z,26.94
2022-09-14T13:59:32.148Z,26.95
2022-09-14T14:04:37.989Z,26.96
2022-09-14T14:09:53.105Z,26.88
2022-09-14T14:14:58.497Z,26.99
2022-09-14T14:20:26.591Z,26.75
2022-09-14T14:25:35.774Z,26.61
2022-09-14T14:30:41.040Z,26.74
2022-09-14T14:35:43.262Z,26.32
2022-09-14T14:40:47.026Z,26.51
2022-09-14T14:45:56.416Z,26.51
2022-09-14T14:50:58.660Z,26.42
2022-09-14T14:56:01.006Z,26.26
2022-09-14T15:01:03.318Z,26.11
2022-09-14T15:06:19.426Z,26.16
2022-09-14T15:11:22.005Z,26.16
2022-09-14T15:16:24.961Z,25.82
2022-09-14T15:21:27.247Z,25.57
2022-09-14T15:26:29.553Z,25.51
2022-09-14T15:31:32.287Z,25.06
2022-09-14T15:36:53.438Z,24.69
2022-09-14T15:41:56.701Z,24.14
2022-09-14T15:46:59.382Z,23.82
2022-09-14T15:52:01.961Z,23.07
2022-09-14T15:57:06.915Z,22.55
2022-09-14T16:02:12.401Z,22.23
2022-09-14T16:07:19.764Z,21.31
2022-09-14T16:12:22.187Z,20.78
2022-09-14T16:17:24.322Z,20.22
2022-09-14T16:22:26.405Z,20.06
2022-09-14T16:27:29.011Z,19.52
2022-09-14T16:32:31.214Z,19.21
2022-09-14T16:37:33.546Z,19.03
2022-09-14T16:42:35.614Z,19.12
2022-09-14T16:47:38.624Z,18.97
2022-09-14T16:52:40.807Z,19.06
2022-09-14T16:57:43.020Z,18.79
2022-09-14T17:02:45.669Z,18.75
2022-09-14T17:07:48.271Z,18.60
2022-09-14T17:12:50.527Z,18.50
2022-09-14T17:17:55.422Z,18.57
2022-09-14T17:22:57.606Z,18.39
2022-09-14T17:28:02.152Z,17.88
2022-09-14T17:33:04.412Z,17.62
2022-09-14T17:38:06.651Z,17.43
2022-09-14T17:43:12.542Z,17.19
2022-09-14T17:48:22.255Z,17.17
2022-09-14T17:53:25.173Z,16.73
2022-09-14T17:58:27.424Z,16.81
2022-09-14T18:03:29.785Z,16.80
2022-09-14T18:08:32.191Z,16.49
2022-09-14T18:13:34.708Z,16.21
2022-09-14T18:18:37.505Z,15.62
2022-09-14T18:23:39.854Z,15.70
2022-09-14T18:28:42.119Z,15.89
2022-09-14T18:33:49.111Z,15.93
2022-09-14T18:38:53.236Z,16.26
2022-09-14T18:43:55.396Z,15.96
2022-09-14T18:48:59.642Z,16.14
2022-09-14T18:54:05.513Z,15.74
2022-09-14T18:59:11.427Z,15.73
2022-09-14T19:04:15.767Z,15.77
2022-09-14T19:09:18.005Z,15.68
2022-09-14T19:14:21.484Z,15.71
2022-09-14T19:19:24.836Z,15.92
2022-09-14T19:24:30.985Z,15.65
2022-09-14T19:29:33.369Z,15.46
2022-09-14T19:34:35.545Z,15.45
2022-09-14T19:39:37.647Z,14.89
2022-09-14T19:44:39.864Z,14.99
2022-09-14T19:49:42.246Z,15.27
2022-09-14T19:54:44.631Z,14.84
2022-09-14T19:59:46.764Z,14.72
2022-09-14T20:04:49.114Z,14.48
2022-09-14T20:09:51.441Z,14.80
2022-09-14T20:14:53.579Z,14.62
2022-09-14T20:19:55.695Z,14.71
2022-09-14T20:24:58.146Z,14.75
2022-09-14T20:30:00.363Z,14.72
2022-09-14T20:35:02.653Z,14.66
2022-09-14T20:40:05.711Z,14.46
2022-09-14T20:45:09.408Z,14.73
2022-09-14T20:50:13.887Z,14.48
2022-09-14T20:55:16.119Z,14.19
2022-09-14T21:00:18.403Z,14.19
2022-09-14T21:05:20.567Z,13.53
2022-09-14T21:10:28.579Z,13.65
2022-09-14T21:15:33.786Z,13.76
2022-09-14T21:20:37.420Z,13.27
2022-09-14T21:25:39.673Z,13.23
2022-09-14T21:30:41.975Z,13.21
2022-09-14T21:35:44.180Z,13.43
2022-09-14T21:40:46.280Z,13.45
2022-09-14T21:45:48.712Z,13.59
2022-09-14T21:50:50.935Z,13.52
2022-09-14T21:55:53.051Z,13.43
2022-09-14T22:00:59.520Z,13.58
2022-09-14T22:06:06.800Z,13.50
2022-09-14T22:11:15.322Z,13.43
2022-09-14T22:16:18.407Z,13.67
2022-09-14T22:21:21.987Z,13.59
2022-09-14T22:26:25.726Z,13.58
2022-09-14T22:31:29.292Z,13.51
2022-09-14T22:36:31.699Z,13.47
2022-09-14T22:41:34.679Z,13.38
2022-09-14T22:46:37.299Z,13.48
2022-09-14T22:51:39.839Z,13.37
2022-09-14T22:56:41.978Z,13.50
2022-09-14T23:01:44.991Z,13.43
2022-09-14T23:06:48.513Z,13.55
2022-09-14T23:11:50.886Z,13.58
2022-09-14T23:16:53.130Z,13.54
2022-09-14T23:21:55.397Z,13.47
2022-09-14T23:26:57.600Z,13.55
2022-09-14T23:31:59.878Z,13.38
2022-09-14T23:37:02.262Z,13.57
2022-09-14T23:42:04.729Z,13.29
2022-09-14T23:47:07.005Z,13.26
2022-09-14T23:52:09.266Z,12.99
